メインページ
METAR-TAF:

METAR-TAF

空港 :

クウェート国際空港

クウェート, クウェート

緯度: 29-13N, 経度: 047-59E, 海抜: 55m

現時点の気象観測

当レポートは36分前の07:00(UTC)に作成
北西の風 7kt
気温 41°C
湿度 16%
気圧 1000 hPa
視程10km以上
1,500メートル以下は雲なし、積乱雲なし

METAR: OKBK 190700Z 31007KT CAVOK 41/10 Q1000 NOSIG

時間: 10:36 (07:36 UTC)

予報

当レポートは2時間51分前の04:45(UTC)に作成
予報は19日の 06時(UTC)から 20日の 12時(UTC)まで有効
の風 8kt、最大18ktの突風を伴う
視程: 7000m
晴天

TAF: OKBK 190445Z 1906/2012 35008G18KT 7000 SKC

4,000以上の空港の気象観測と天気予報(METAR報とTAF報)

利用可能な観測所は地図上に黄色い丸と赤い丸で示す。

丸の上にカーソルを重ねると観測所名を参照できる。

次にクリックすると気象観測と天気予報を参照できる。

マップの切り替え:黒色「×」印の緑ボタンをクリックして拡大、「-」印の緑ボタンをクリックして縮小、緑色の三角印をクリックして隣りの地図に切り替え


METAR-TAF: